Time;durP1;ratioP1;P1;durP2;ratioP2;P2;SDS_P1;SDS_P2;PMS_P1;PMS_P2;Temp;Humidity;BMP_temperature;BMP_pressure;BME280_temperature;BME280_humidity;BME280_pressure;Samples;Min_cycle;Max_cycle;Signal;HPM_P1;HPM_P2
2023/08/13 00:00:16;;;;;;;1.92;1.60;;;;;;;17.27;100.00;101391.41;6299792;28;20464;-70
2023/08/13 00:03:17;;;;;;;6.60;1.42;;;;;;;17.24;100.00;101391.63;6299687;28;20467;-70
2023/08/13 00:06:19;;;;;;;4.25;1.75;;;;;;;17.27;100.00;101382.59;6299773;28;20052;-70
2023/08/13 00:09:20;;;;;;;2.80;1.85;;;;;;;17.34;100.00;101389.16;6299911;28;20055;-72
2023/08/13 00:12:23;;;;;;;2.33;1.42;;;;;;;17.20;100.00;101388.34;6299603;28;20052;-71
2023/08/13 00:15:25;;;;;;;7.68;1.90;;;;;;;17.23;100.00;101392.59;6299657;28;20044;-70
2023/08/13 00:18:28;;;;;;;3.63;1.60;;;;;;;17.17;100.00;101387.72;6299797;28;20495;-70
2023/08/13 00:21:29;;;;;;;4.40;1.48;;;;;;;17.09;100.00;101390.91;6303602;28;20428;-70
2023/08/13 00:24:31;;;;;;;3.80;2.13;;;;;;;17.09;100.00;101396.22;6304064;28;20056;-71
2023/08/13 00:27:33;;;;;;;4.90;1.98;;;;;;;17.07;100.00;101391.97;6293117;28;20049;-70
2023/08/13 00:30:35;;;;;;;3.00;1.55;;;;;;;17.03;100.00;101386.00;6294981;28;20356;-69
2023/08/13 00:33:37;;;;;;;3.50;2.10;;;;;;;17.07;100.00;101390.16;6294569;28;20056;-70
2023/08/13 00:36:38;;;;;;;2.53;1.60;;;;;;;17.02;100.00;101386.13;6303972;28;20075;-69
2023/08/13 00:39:39;;;;;;;4.93;2.00;;;;;;;17.07;100.00;101386.66;6303871;28;20048;-69
2023/08/13 00:42:42;;;;;;;2.88;1.90;;;;;;;16.97;100.00;101389.94;6292013;28;20082;-70
2023/08/13 00:45:44;;;;;;;2.75;1.60;;;;;;;17.01;100.00;101393.25;6303649;28;20045;-70
2023/08/13 00:48:47;;;;;;;2.45;2.08;;;;;;;16.97;100.00;101392.59;6303957;28;20055;-70
2023/08/13 00:51:49;;;;;;;2.97;2.05;;;;;;;17.02;100.00;101402.91;6303428;28;20044;-71
2023/08/13 00:54:50;;;;;;;3.20;2.25;;;;;;;16.95;100.00;101401.66;6303637;28;20052;-70
2023/08/13 00:57:53;;;;;;;3.42;2.17;;;;;;;16.91;100.00;101403.66;6303684;28;20048;-70
2023/08/13 01:00:55;;;;;;;4.95;2.53;;;;;;;16.87;100.00;101406.66;6303312;28;20345;-70
2023/08/13 01:03:56;;;;;;;4.20;1.50;;;;;;;16.90;100.00;101407.28;6303234;28;20052;-70
2023/08/13 01:07:05;;;;;;;2.90;1.50;;;;;;;16.89;100.00;101404.72;6303314;28;20052;-70
2023/08/13 01:10:14;;;;;;;2.80;2.00;;;;;;;16.87;100.00;101402.19;6303312;28;20365;-70
2023/08/13 01:13:23;;;;;;;3.75;1.73;;;;;;;16.84;100.00;101401.53;6303163;28;20048;-70
2023/08/13 01:16:25;;;;;;;2.55;1.88;;;;;;;16.87;100.00;101396.03;6303182;28;20049;-70
2023/08/13 01:19:27;;;;;;;6.45;1.98;;;;;;;16.87;100.00;101398.69;6302977;28;20052;-70
2023/08/13 01:22:29;;;;;;;4.47;2.78;;;;;;;16.77;100.00;101395.81;6302839;28;20353;-69
2023/08/13 01:25:32;;;;;;;3.10;2.35;;;;;;;16.77;100.00;101398.47;6302799;28;20448;-69
2023/08/13 01:28:40;;;;;;;2.00;1.70;;;;;;;16.71;100.00;101398.84;6302843;28;20048;-71
2023/08/13 01:31:49;;;;;;;4.38;2.22;;;;;;;16.73;100.00;101402.28;6302284;28;20060;-71
2023/08/13 01:34:51;;;;;;;4.33;2.20;;;;;;;16.71;100.00;101407.69;6302656;28;20055;-71
2023/08/13 01:37:57;;;;;;;3.35;2.08;;;;;;;16.66;100.00;101399.16;6302567;28;20275;-72
2023/08/13 01:41:01;;;;;;;4.03;2.20;;;;;;;16.70;100.00;101398.00;6302736;28;20048;-71
2023/08/13 01:44:03;;;;;;;3.15;2.00;;;;;;;16.63;100.00;101399.38;6302136;28;20052;-71
2023/08/13 01:47:05;;;;;;;4.35;2.05;;;;;;;16.61;100.00;101400.44;6302795;28;20614;-71
2023/08/13 01:50:07;;;;;;;3.25;2.20;;;;;;;16.58;100.00;101412.13;6302443;28;20098;-71
2023/08/13 01:53:10;;;;;;;5.22;2.45;;;;;;;16.57;100.00;101406.91;6302131;28;20456;-67
2023/08/13 01:56:11;;;;;;;3.53;2.30;;;;;;;16.56;100.00;101416.66;6302105;28;20449;-67
2023/08/13 01:59:13;;;;;;;3.35;2.22;;;;;;;16.56;100.00;101410.50;6302045;28;20364;-67
2023/08/13 02:02:14;;;;;;;5.45;2.47;;;;;;;16.59;100.00;101412.97;6302083;28;20048;-67
2023/08/13 02:05:16;;;;;;;2.72;2.17;;;;;;;16.60;100.00;101414.66;6301678;28;20436;-67
2023/08/13 02:08:19;;;;;;;7.28;2.53;;;;;;;16.59;100.00;101415.63;6301944;28;20055;-67
2023/08/13 02:11:20;;;;;;;7.63;3.08;;;;;;;16.59;100.00;101419.13;6301617;28;20044;-67
2023/08/13 02:14:21;;;;;;;3.85;1.70;;;;;;;16.61;100.00;101419.84;6301542;28;20063;-66
2023/08/13 02:17:23;;;;;;;4.40;2.22;;;;;;;16.69;100.00;101414.03;6301529;28;20071;-66
2023/08/13 02:20:24;;;;;;;2.17;1.48;;;;;;;16.57;100.00;101421.00;6301485;28;20044;-66
2023/08/13 02:23:27;;;;;;;5.22;2.30;;;;;;;16.59;100.00;101424.44;6300533;28;20067;-66
2023/08/13 02:26:28;;;;;;;2.88;2.00;;;;;;;16.70;100.00;101415.72;6294976;28;20059;-69
2023/08/13 02:29:30;;;;;;;4.05;2.35;;;;;;;16.68;100.00;101417.66;6291254;28;20055;-66
2023/08/13 02:32:31;;;;;;;4.60;2.22;;;;;;;16.66;100.00;101423.03;6292452;28;20579;-67
2023/08/13 02:35:32;;;;;;;2.22;1.48;;;;;;;16.65;100.00;101421.34;6292536;28;20348;-67
2023/08/13 02:38:35;;;;;;;3.10;2.33;;;;;;;16.64;100.00;101417.00;6301008;28;20068;-66
2023/08/13 02:41:36;;;;;;;5.97;2.20;;;;;;;16.62;100.00;101424.22;6296889;28;20437;-68
2023/08/13 02:44:38;;;;;;;3.78;2.38;;;;;;;16.59;100.00;101427.09;6291947;28;20052;-66
2023/08/13 02:47:39;;;;;;;6.25;2.08;;;;;;;16.71;100.00;101428.91;6301084;28;20064;-68
2023/08/13 02:50:40;;;;;;;6.97;2.33;;;;;;;16.64;100.00;101434.72;6300730;28;20044;-68
2023/08/13 02:53:43;;;;;;;3.85;2.40;;;;;;;16.56;100.00;101424.63;6300425;28;20060;-66
2023/08/13 02:56:44;;;;;;;5.45;2.15;;;;;;;16.47;100.00;101426.09;6300750;28;20052;-65
2023/08/13 02:59:46;;;;;;;6.55;2.63;;;;;;;16.39;100.00;101425.75;6300889;28;20052;-68
2023/08/13 03:02:47;;;;;;;3.65;2.58;;;;;;;16.38;100.00;101424.06;6300467;28;20040;-66
2023/08/13 03:05:49;;;;;;;5.03;1.60;;;;;;;16.41;100.00;101429.16;6300639;28;20056;-68
2023/08/13 03:08:51;;;;;;;3.97;2.08;;;;;;;16.43;100.00;101431.72;6300548;28;20059;-66
2023/08/13 03:11:53;;;;;;;6.05;1.85;;;;;;;16.43;100.00;101426.41;6300569;28;20048;-67
2023/08/13 03:14:54;;;;;;;3.00;2.03;;;;;;;16.33;100.00;101426.16;6300600;28;20337;-68
2023/08/13 03:17:57;;;;;;;6.13;2.25;;;;;;;16.29;100.00;101437.09;6300590;28;20052;-68
2023/08/13 03:20:58;;;;;;;2.40;1.92;;;;;;;16.34;100.00;101430.50;6300428;28;20048;-68
2023/08/13 03:24:01;;;;;;;6.10;2.00;;;;;;;16.34;100.00;101429.66;6299936;28;20055;-68
2023/08/13 03:27:02;;;;;;;2.65;2.20;;;;;;;16.37;100.00;101424.16;6300444;28;20048;-66
2023/08/13 03:30:04;;;;;;;4.57;2.03;;;;;;;16.29;100.00;101429.13;6300227;28;20057;-68
2023/08/13 03:33:05;;;;;;;4.28;2.05;;;;;;;16.26;100.00;101419.59;6300258;28;20056;-66
2023/08/13 03:36:07;;;;;;;4.53;2.10;;;;;;;16.25;100.00;101423.16;6300220;28;20048;-66
2023/08/13 03:39:10;;;;;;;3.40;2.03;;;;;;;16.20;100.00;101427.94;6300377;28;20433;-66
2023/08/13 03:42:11;;;;;;;3.97;2.08;;;;;;;16.17;100.00;101426.34;6299961;28;20329;-66
2023/08/13 03:45:13;;;;;;;5.13;2.05;;;;;;;16.14;100.00;101428.34;6300004;28;20467;-66
2023/08/13 03:48:14;;;;;;;2.95;1.95;;;;;;;16.01;100.00;101432.75;6300053;28;20342;-66
2023/08/13 03:51:15;;;;;;;7.57;3.00;;;;;;;15.96;100.00;101428.59;6299770;28;20045;-66
2023/08/13 03:54:18;;;;;;;6.70;2.35;;;;;;;16.06;100.00;101426.19;6302110;28;20071;-68
2023/08/13 03:57:20;;;;;;;5.05;2.97;;;;;;;16.04;100.00;101428.09;6304988;28;20045;-66
2023/08/13 04:00:21;;;;;;;7.13;3.05;;;;;;;15.99;100.00;101435.50;6304893;28;20048;-68
2023/08/13 04:03:22;;;;;;;5.30;2.50;;;;;;;15.94;100.00;101435.81;6304745;28;20055;-65
2023/08/13 04:06:24;;;;;;;5.72;3.00;;;;;;;15.91;100.00;101437.81;6304783;28;20060;-66
2023/08/13 04:09:26;;;;;;;4.35;2.65;;;;;;;15.90;100.00;101436.97;6304510;28;20057;-67
2023/08/13 04:12:28;;;;;;;5.03;2.95;;;;;;;15.94;100.00;101437.59;6301292;28;20479;-66
2023/08/13 04:15:29;;;;;;;7.88;2.78;;;;;;;15.92;100.00;101439.50;6279271;28;20049;-66
2023/08/13 04:18:31;;;;;;;7.28;2.60;;;;;;;15.88;100.00;101443.28;6279220;28;20045;-69
2023/08/13 04:21:32;;;;;;;6.03;2.70;;;;;;;15.88;100.00;101440.63;6279493;28;20071;-66
2023/08/13 04:24:35;;;;;;;3.20;2.20;;;;;;;15.92;100.00;101447.44;6278926;28;20044;-68
2023/08/13 04:27:36;;;;;;;5.00;2.40;;;;;;;15.91;100.00;101440.44;6286212;28;20044;-68
2023/08/13 04:30:38;;;;;;;3.88;3.03;;;;;;;15.87;100.00;101446.91;6279781;28;20052;-68
2023/08/13 04:33:39;;;;;;;6.55;3.05;;;;;;;15.85;100.00;101448.78;6279275;28;20044;-66
2023/08/13 04:36:40;;;;;;;4.93;2.47;;;;;;;15.85;100.00;101448.78;6278791;28;20433;-68
2023/08/13 04:39:43;;;;;;;5.93;3.00;;;;;;;15.87;100.00;101444.25;6279242;28;20045;-66
2023/08/13 04:42:45;;;;;;;5.20;2.85;;;;;;;15.88;100.00;101446.78;6278487;28;20045;-68
2023/08/13 04:45:46;;;;;;;4.40;3.15;;;;;;;15.96;100.00;101454.25;6278297;28;20326;-66
2023/08/13 04:48:49;;;;;;;5.22;2.75;;;;;;;16.01;100.00;101452.16;6278449;28;20146;-68
2023/08/13 04:51:50;;;;;;;4.78;2.83;;;;;;;15.91;100.00;101453.72;6278204;28;20337;-68
2023/08/13 04:54:53;;;;;;;3.72;2.53;;;;;;;15.96;100.00;101444.50;6278098;28;20041;-68
2023/08/13 04:57:54;;;;;;;5.15;3.53;;;;;;;15.97;100.00;101443.53;6275373;28;20061;-68
2023/08/13 05:00:55;;;;;;;4.75;3.05;;;;;;;16.01;100.00;101444.19;6278258;28;20047;-66
2023/08/13 05:03:57;;;;;;;6.22;3.83;;;;;;;15.97;100.00;101440.03;6277612;28;20075;-66
2023/08/13 05:06:58;;;;;;;5.35;3.28;;;;;;;16.00;100.00;101442.50;6277055;28;20060;-65
2023/08/13 05:10:01;;;;;;;6.70;3.63;;;;;;;16.01;100.00;101446.84;6277830;28;20053;-66
2023/08/13 05:13:03;;;;;;;5.10;3.15;;;;;;;16.01;100.00;101446.84;6277511;28;20618;-66
2023/08/13 05:16:05;;;;;;;5.22;2.85;;;;;;;16.07;100.00;101453.56;6277591;28;20056;-69
2023/08/13 05:19:06;;;;;;;7.30;3.80;;;;;;;16.06;100.00;101446.56;6277898;28;20041;-69
2023/08/13 05:22:08;;;;;;;6.22;3.40;;;;;;;16.10;100.00;101451.56;6278071;28;20048;-68
2023/08/13 05:25:10;;;;;;;6.60;3.95;;;;;;;16.21;100.00;101457.03;6278014;28;20049;-66
2023/08/13 05:28:12;;;;;;;6.15;3.67;;;;;;;16.25;100.00;101455.00;6278132;28;20045;-66
2023/08/13 05:31:13;;;;;;;9.10;4.13;;;;;;;16.27;100.00;101452.25;6277601;28;20049;-66
2023/08/13 05:34:14;;;;;;;6.15;3.53;;;;;;;16.35;100.00;101455.25;6277240;28;20076;-69
2023/08/13 05:37:16;;;;;;;4.75;3.42;;;;;;;16.29;100.00;101456.50;6277783;28;20079;-66
2023/08/13 05:40:19;;;;;;;6.40;3.47;;;;;;;16.37;100.00;101448.88;6277940;28;20055;-68
2023/08/13 05:43:20;;;;;;;10.13;4.65;;;;;;;16.40;100.00;101453.16;6277426;28;20437;-66
2023/08/13 05:46:21;;;;;;;8.15;4.25;;;;;;;16.43;100.00;101451.13;6277607;28;20442;-66
2023/08/13 05:49:23;;;;;;;9.85;4.15;;;;;;;16.51;100.00;101452.44;6277523;28;20057;-66
2023/08/13 05:52:24;;;;;;;13.05;3.63;;;;;;;16.58;100.00;101453.69;6277274;28;20045;-66
2023/08/13 05:55:27;;;;;;;8.93;3.58;;;;;;;16.59;100.00;101452.78;6277043;28;20056;-68
2023/08/13 05:58:28;;;;;;;8.02;4.25;;;;;;;16.57;100.00;101446.69;6277507;28;20055;-68
2023/08/13 06:01:29;;;;;;;7.43;3.92;;;;;;;16.74;100.00;101454.41;6277538;28;20056;-68
2023/08/13 06:04:34;;;;;;;7.25;4.10;;;;;;;16.77;100.00;101440.94;6284223;28;20048;-66
2023/08/13 06:07:35;;;;;;;6.70;4.13;;;;;;;16.80;100.00;101451.31;6279866;28;20044;-66
2023/08/13 06:10:38;;;;;;;6.13;4.00;;;;;;;16.76;100.00;101449.88;6277033;28;20049;-66
2023/08/13 06:13:39;;;;;;;6.75;3.15;;;;;;;16.73;100.00;101447.41;6292268;28;20041;-66
2023/08/13 06:16:41;;;;;;;9.18;4.50;;;;;;;16.76;100.00;101459.59;6301493;28;20052;-66
2023/08/13 06:19:43;;;;;;;8.10;3.92;;;;;;;16.82;100.00;101460.06;6295630;28;20051;-68
2023/08/13 06:22:45;;;;;;;6.15;3.80;;;;;;;16.92;100.00;101457.63;6279956;28;20179;-68
2023/08/13 06:25:47;;;;;;;6.03;3.35;;;;;;;16.90;100.00;101451.56;6276058;28;20045;-65
2023/08/13 06:28:49;;;;;;;9.10;3.80;;;;;;;17.01;100.00;101464.09;6275912;28;20052;-67
2023/08/13 06:31:50;;;;;;;10.38;3.65;;;;;;;17.02;100.00;101460.47;6254279;28;20053;-67
2023/08/13 06:34:52;;;;;;;10.45;3.80;;;;;;;17.03;100.00;101471.00;6276173;28;20049;-67
2023/08/13 06:37:53;;;;;;;5.00;3.63;;;;;;;17.05;100.00;101466.44;6276203;28;20063;-67
2023/08/13 06:41:02;;;;;;;5.63;3.30;;;;;;;17.14;100.00;101475.59;6285055;28;20045;-67
2023/08/13 06:44:04;;;;;;;7.88;3.55;;;;;;;17.24;100.00;101472.16;6289715;28;20048;-67
2023/08/13 06:47:06;;;;;;;6.75;3.75;;;;;;;17.36;100.00;101469.63;6295322;28;20045;-67
2023/08/13 06:50:08;;;;;;;4.07;2.70;;;;;;;17.39;100.00;101477.38;6291680;28;20440;-67
2023/08/13 06:53:10;;;;;;;7.75;3.03;;;;;;;17.17;100.00;101475.38;6295233;28;20372;-67
2023/08/13 06:56:12;;;;;;;7.28;3.33;;;;;;;17.12;100.00;101473.03;6300542;28;20437;-67
2023/08/13 06:59:14;;;;;;;9.18;3.65;;;;;;;17.17;100.00;101481.53;6300869;28;20064;-67
2023/08/13 07:02:15;;;;;;;9.30;2.55;;;;;;;17.25;100.00;101473.88;6300505;28;20044;-66
2023/08/13 07:05:18;;;;;;;9.30;3.58;;;;;;;17.29;100.00;101482.47;6300544;28;20052;-66
2023/08/13 07:08:19;;;;;;;5.50;2.67;;;;;;;17.29;100.00;101482.47;6300578;28;20083;-67
2023/08/13 07:11:22;;;;;;;6.75;3.45;;;;;;;17.35;100.00;101479.41;6293430;28;20052;-66
2023/08/13 07:14:23;;;;;;;6.40;2.80;;;;;;;17.32;100.00;101478.78;6283074;28;20055;-66
2023/08/13 07:17:24;;;;;;;8.95;3.00;;;;;;;17.33;100.00;101477.81;6288901;28;20048;-66
2023/08/13 07:20:27;;;;;;;7.03;2.55;;;;;;;17.34;100.00;101483.00;6293215;28;20377;-68
2023/08/13 07:23:28;;;;;;;6.35;2.35;;;;;;;17.38;100.00;101487.16;6297434;28;20051;-68
2023/08/13 07:26:31;;;;;;;5.88;2.00;;;;;;;17.39;100.00;101477.38;6298972;28;20084;-69
2023/08/13 07:29:33;;;;;;;5.07;2.20;;;;;;;17.43;100.00;101479.69;6289408;28;20166;-68
2023/08/13 07:32:36;;;;;;;5.68;1.60;;;;;;;17.45;100.00;101477.78;6300158;28;20052;-68
2023/08/13 07:35:39;;;;;;;5.80;2.03;;;;;;;17.55;100.00;101483.31;6299953;28;20055;-68
2023/08/13 07:38:40;;;;;;;13.50;2.03;;;;;;;17.65;100.00;101487.00;6300284;28;20049;-68
2023/08/13 07:41:43;;;;;;;5.10;1.80;;;;;;;17.69;100.00;101475.19;6300079;28;20055;-66
2023/08/13 07:44:45;;;;;;;7.38;1.90;;;;;;;17.73;100.00;101479.38;6299623;28;20086;-68
2023/08/13 07:47:46;;;;;;;9.77;2.53;;;;;;;17.78;100.00;101483.50;6300118;28;20060;-66
2023/08/13 07:50:47;;;;;;;5.35;1.77;;;;;;;17.87;100.00;101482.84;6300136;28;20060;-66
2023/08/13 07:53:49;;;;;;;7.60;2.90;;;;;;;17.98;100.00;101488.22;6299815;23;20063;-70
2023/08/13 07:56:52;;;;;;;3.85;1.50;;;;;;;18.04;100.00;101487.78;6269100;28;20053;-70
2023/08/13 07:59:54;;;;;;;3.65;1.50;;;;;;;18.13;100.00;101486.28;6260400;28;20049;-70
2023/08/13 08:02:55;;;;;;;9.65;1.65;;;;;;;18.19;100.00;101491.97;6249961;28;20049;-70
2023/08/13 08:05:57;;;;;;;5.13;1.25;;;;;;;18.23;100.00;101496.13;6250123;28;20056;-70
2023/08/13 08:08:58;;;;;;;3.50;1.27;;;;;;;18.26;100.00;101500.38;6249944;28;20049;-70
2023/08/13 08:12:01;;;;;;;6.85;1.75;;;;;;;18.27;100.00;101494.09;6250211;28;20046;-69
2023/08/13 08:15:02;;;;;;;4.47;1.30;;;;;;;18.22;100.00;101489.09;6249664;28;20469;-70
2023/08/13 08:18:04;;;;;;;3.55;1.20;;;;;;;18.27;100.00;101490.59;6250235;28;20140;-70
2023/08/13 08:21:05;;;;;;;2.97;1.00;;;;;;;18.27;100.00;101490.59;6249973;28;20049;-70
2023/08/13 08:24:07;;;;;;;5.25;1.70;;;;;;;18.29;100.00;101485.97;6249812;28;20042;-69
2023/08/13 08:27:10;;;;;;;6.78;2.45;;;;;;;18.40;100.00;101497.53;6250120;28;20056;-70
2023/08/13 08:30:13;;;;;;;4.72;1.20;;;;;;;18.44;100.00;101491.03;6249846;28;20486;-70
2023/08/13 08:33:14;;;;;;;4.95;1.67;;;;;;;18.43;100.00;101491.97;6249772;28;20050;-70
2023/08/13 08:36:15;;;;;;;4.47;1.23;;;;;;;18.48;100.00;101496.94;6249451;28;20354;-71
2023/08/13 08:39:18;;;;;;;4.55;1.38;;;;;;;18.50;100.00;101493.22;6253186;28;20144;-71
2023/08/13 08:42:21;;;;;;;5.00;1.50;;;;;;;18.47;100.00;101490.78;6269630;28;20434;-70
2023/08/13 08:45:23;;;;;;;4.50;1.27;;;;;;;18.59;100.00;101489.03;6269809;28;20045;-70
2023/08/13 08:48:26;;;;;;;2.72;1.20;;;;;;;18.71;100.00;101488.13;6258169;28;20044;-71
2023/08/13 08:51:27;;;;;;;2.53;1.00;;;;;;;18.77;100.00;101486.81;6270745;28;20049;-70
2023/08/13 08:54:29;;;;;;;1.50;0.90;;;;;;;18.86;100.00;101483.47;6278180;28;20048;-70
2023/08/13 08:57:31;;;;;;;3.65;0.80;;;;;;;18.87;100.00;101482.47;6278720;28;20049;-71
2023/08/13 09:00:33;;;;;;;3.92;0.93;;;;;;;18.87;100.00;101477.16;6270499;28;20049;-70
2023/08/13 09:03:35;;;;;;;5.25;0.85;;;;;;;18.91;100.00;101472.44;6253924;28;20045;-70
2023/08/13 09:06:54;;;;;;;1.70;1.10;;;;;;;18.92;100.00;101472.31;6253672;28;20049;-70
2023/08/13 09:09:55;;;;;;;1.27;0.82;;;;;;;19.01;100.00;101479.59;6253686;28;20053;-70
2023/08/13 09:12:58;;;;;;;4.80;1.67;;;;;;;19.09;100.00;101473.69;6253451;28;20052;-71
2023/08/13 09:16:00;;;;;;;1.52;0.90;;;;;;;19.09;100.00;101476.34;6253283;28;20049;-70
2023/08/13 09:19:01;;;;;;;2.92;1.48;;;;;;;19.05;100.00;101472.22;6253811;28;20053;-70
2023/08/13 09:22:03;;;;;;;3.08;1.08;;;;;;;19.08;100.00;101474.66;6253315;28;20056;-70
2023/08/13 09:25:05;;;;;;;1.27;0.82;;;;;;;19.15;100.00;101467.88;6253149;28;20049;-70
2023/08/13 09:28:08;;;;;;;4.13;0.98;;;;;;;19.20;100.00;101470.19;6253176;28;20056;-71
2023/08/13 09:31:09;;;;;;;4.45;0.90;;;;;;;19.29;100.00;101469.47;6247292;28;20056;-70
2023/08/13 09:34:11;;;;;;;1.95;0.88;;;;;;;19.29;100.00;101463.28;6251595;28;20516;-70
2023/08/13 09:37:12;;;;;;;3.50;1.00;;;;;;;19.34;100.00;101458.44;6251532;28;20434;-70
2023/08/13 09:40:14;;;;;;;1.45;0.80;;;;;;;19.45;100.00;101455.78;6250647;28;20053;-70
2023/08/13 09:43:21;;;;;;;3.17;0.70;;;;;;;19.60;100.00;101459.03;6252190;28;20049;-70
2023/08/13 09:46:27;;;;;;;4.63;0.80;;;;;;;19.73;100.00;101460.63;6251784;28;20053;-71
2023/08/13 09:49:30;;;;;;;3.78;1.00;;;;;;;19.84;100.00;101457.06;6251807;28;20060;-70
2023/08/13 09:52:32;;;;;;;2.35;1.00;;;;;;;20.00;100.00;101454.03;6251300;28;20037;-71
2023/08/13 09:55:37;;;;;;;1.45;0.50;;;;;;;19.96;100.00;101447.25;6250825;28;20049;-70
2023/08/13 09:58:40;;;;;;;1.65;0.77;;;;;;;19.93;100.00;101447.47;6250672;28;20038;-69
2023/08/13 10:01:43;;;;;;;1.02;0.40;;;;;;;20.03;100.00;101448.44;6250843;28;20041;-70
2023/08/13 10:04:45;;;;;;;8.18;1.58;;;;;;;20.17;100.00;101448.16;6250318;28;20057;-70
2023/08/13 10:07:47;;;;;;;2.05;0.88;;;;;;;20.21;100.00;101438.06;6260403;28;20049;-70
2023/08/13 10:10:49;;;;;;;1.83;0.60;;;;;;;20.22;100.00;101445.94;6261318;28;20052;-71
2023/08/13 10:13:52;;;;;;;1.58;0.65;;;;;;;20.31;100.00;101443.50;6276450;28;20045;-71
2023/08/13 10:16:54;;;;;;;1.70;0.70;;;;;;;20.34;100.00;101444.06;6276970;28;20045;-70
2023/08/13 10:19:57;;;;;;;3.97;1.10;;;;;;;20.36;100.00;101444.81;6276741;28;20049;-70
2023/08/13 10:23:01;;;;;;;1.38;0.60;;;;;;;20.31;100.00;101447.00;6276862;28;20041;-69
2023/08/13 10:26:02;;;;;;;1.55;0.70;;;;;;;20.46;100.00;101440.38;6275132;28;20059;-70
2023/08/13 10:29:16;;;;;;;2.40;0.80;;;;;;;20.48;100.00;101435.81;6257285;28;20048;-69
2023/08/13 10:32:17;;;;;;;0.98;0.73;;;;;;;20.62;100.00;101441.78;6260830;28;20453;-70
2023/08/13 10:35:26;;;;;;;1.20;0.60;;;;;;;20.67;100.00;101440.44;6267644;28;20353;-70
2023/08/13 10:38:34;;;;;;;2.58;0.50;;;;;;;20.67;100.00;101439.59;6263079;28;20068;-70
2023/08/13 10:41:35;;;;;;;1.33;0.77;;;;;;;20.76;100.00;101438.81;6263117;28;20046;-69
2023/08/13 10:44:41;;;;;;;5.45;0.60;;;;;;;20.73;100.00;101433.72;6265834;28;20103;-70
2023/08/13 10:47:46;;;;;;;0.43;0.43;;;;;;;20.88;100.00;101434.22;6268008;28;20052;-69
2023/08/13 10:50:50;;;;;;;2.72;0.60;;;;;;;21.03;100.00;101430.25;6274054;28;20171;-70
2023/08/13 10:53:51;;;;;;;2.88;0.63;;;;;;;21.07;100.00;101431.63;6251142;28;20480;-70
2023/08/13 10:56:58;;;;;;;2.78;0.55;;;;;;;21.20;100.00;101434.94;6251544;28;20049;-69
2023/08/13 11:00:02;;;;;;;2.78;0.60;;;;;;;21.30;100.00;101424.28;6251169;28;20434;-70
2023/08/13 11:03:18;;;;;;;2.67;0.75;;;;;;;21.27;100.00;101430.75;6250382;28;20354;-69
2023/08/13 11:06:20;;;;;;;1.23;0.80;;;;;;;21.35;100.00;101427.47;6250839;28;20437;-70
2023/08/13 11:09:23;;;;;;;1.77;0.52;;;;;;;21.42;100.00;101425.06;6251139;28;20056;-69
2023/08/13 11:12:24;;;;;;;2.65;0.88;;;;;;;21.55;100.00;101423.00;6250684;28;20049;-70
2023/08/13 11:15:29;;;;;;;1.85;0.60;;;;;;;21.53;100.00;101417.81;6258829;28;20041;-69
2023/08/13 11:18:31;;;;;;;1.77;0.57;;;;;;;21.71;100.00;101418.00;6272749;28;20045;-69
2023/08/13 11:21:33;;;;;;;2.08;0.63;;;;;;;21.78;100.00;101416.44;6275862;28;20437;-70
2023/08/13 11:24:35;;;;;;;1.52;0.63;;;;;;;21.77;100.00;101419.25;6275181;28;20156;-70
2023/08/13 11:27:37;;;;;;;1.17;0.43;;;;;;;21.65;100.00;101415.00;6275518;28;20357;-69
2023/08/13 11:30:41;;;;;;;1.60;0.65;;;;;;;21.72;100.00;101419.69;6273930;28;20048;-70
2023/08/13 11:33:42;;;;;;;0.35;0.32;;;;;;;21.68;100.00;101410.22;6265450;28;20045;-69
2023/08/13 11:36:45;;;;;;;6.03;1.05;;;;;;;21.84;100.00;101408.84;6275303;28;20049;-70
2023/08/13 11:39:46;;;;;;;2.13;0.55;;;;;;;21.86;100.00;101414.91;6275208;28;20044;-70
2023/08/13 11:42:58;;;;;;;2.67;0.40;;;;;;;21.97;100.00;101407.59;6275308;28;20060;-69
2023/08/13 11:46:01;;;;;;;2.33;0.60;;;;;;;22.04;100.00;101407.88;6268680;28;20354;-70
2023/08/13 11:49:02;;;;;;;2.17;0.60;;;;;;;22.23;100.00;101404.41;6250300;28;20053;-70
2023/08/13 11:52:06;;;;;;;1.88;0.40;;;;;;;22.38;100.00;101407.47;6250339;28;20072;-70
2023/08/13 11:55:08;;;;;;;2.22;0.43;;;;;;;22.53;100.00;101409.59;6250093;28;20076;-70
2023/08/13 11:58:09;;;;;;;3.60;0.57;;;;;;;22.74;100.00;101398.66;6250302;28;20050;-70
2023/08/13 12:01:13;;;;;;;3.80;0.77;;;;;;;22.92;100.00;101400.63;6250586;28;20060;-69
2023/08/13 12:04:15;;;;;;;1.05;0.70;;;;;;;23.09;100.00;101399.88;6250079;28;20050;-69
2023/08/13 12:07:17;;;;;;;0.95;0.40;;;;;;;23.12;100.00;101398.72;6250214;28;20049;-69
2023/08/13 12:10:18;;;;;;;1.40;0.47;;;;;;;23.24;100.00;101408.28;6250092;28;20057;-72
2023/08/13 12:13:20;;;;;;;1.40;0.50;;;;;;;23.24;100.00;101397.53;6250263;28;20045;-69
2023/08/13 12:16:22;;;;;;;5.10;1.77;;;;;;;23.01;100.00;101394.41;6254103;28;20056;-70
2023/08/13 12:19:24;;;;;;;0.57;0.38;;;;;;;22.93;100.00;101392.44;6255224;28;20049;-69
2023/08/13 12:22:25;;;;;;;0.85;0.50;;;;;;;22.81;100.00;101392.75;6254871;28;20056;-69
2023/08/13 12:25:28;;;;;;;0.93;0.52;;;;;;;22.71;100.00;101392.75;6254358;28;20053;-69
2023/08/13 12:28:30;;;;;;;0.50;0.40;;;;;;;22.83;100.00;101388.06;6254840;28;20046;-70
2023/08/13 12:31:32;;;;;;;1.70;0.57;;;;;;;22.89;100.00;101392.84;6254517;28;20049;-70
2023/08/13 12:34:34;;;;;;;1.55;0.50;;;;;;;22.81;100.00;101395.44;6254235;28;20465;-70
2023/08/13 12:37:35;;;;;;;0.30;0.30;;;;;;;22.76;100.00;101391.34;6254431;28;20053;-71
2023/08/13 12:40:37;;;;;;;1.95;0.60;;;;;;;22.74;100.00;101393.31;6254621;28;20056;-69
2023/08/13 12:43:39;;;;;;;1.00;0.40;;;;;;;23.11;100.00;101392.50;6253854;28;20060;-69
2023/08/13 12:46:41;;;;;;;0.50;0.38;;;;;;;23.39;100.00;101385.34;6254347;28;20049;-69
2023/08/13 12:49:43;;;;;;;8.52;1.17;;;;;;;23.61;100.00;101384.06;6253791;28;20052;-69
2023/08/13 12:52:44;;;;;;;2.22;0.75;;;;;;;23.67;100.00;101380.81;6264138;28;20060;-69
2023/08/13 12:55:46;;;;;;;1.77;0.40;;;;;;;23.91;100.00;101390.94;6255240;28;20068;-69
2023/08/13 12:58:47;;;;;;;1.33;0.55;;;;;;;23.67;100.00;101372.78;6253780;28;20053;-69
2023/08/13 13:01:50;;;;;;;2.90;0.85;;;;;;;23.61;100.00;101385.91;6253777;28;20056;-70
2023/08/13 13:04:51;;;;;;;3.28;0.70;;;;;;;23.58;100.00;101378.19;6253404;28;20049;-71
2023/08/13 13:07:55;;;;;;;0.63;0.52;;;;;;;23.36;100.00;101376.75;6253753;28;20045;-69
2023/08/13 13:10:56;;;;;;;2.58;0.40;;;;;;;23.11;100.00;101386.31;6253106;28;20046;-69
2023/08/13 13:13:58;;;;;;;1.63;0.43;;;;;;;23.24;100.00;101382.28;6253166;28;20221;-70
2023/08/13 13:17:00;;;;;;;2.35;0.68;;;;;;;23.34;100.00;101382.25;6253447;28;20065;-69
2023/08/13 13:20:10;;;;;;;3.22;0.80;;;;;;;23.17;100.00;101391.09;6261138;28;20123;-69
2023/08/13 13:23:11;;;;;;;1.42;0.77;;;;;;;23.04;100.00;101386.91;6271382;28;20060;-69
2023/08/13 13:26:12;;;;;;;3.25;0.90;;;;;;;23.03;100.00;101387.06;6277226;28;20044;-69
2023/08/13 13:29:14;;;;;;;3.05;0.55;;;;;;;23.42;100.00;101384.19;6278065;28;20194;-69
2023/08/13 13:32:18;;;;;;;4.05;0.75;;;;;;;23.57;100.00;101369.25;6277721;28;20357;-69
2023/08/13 13:35:20;;;;;;;1.63;0.57;;;;;;;23.79;100.00;101373.38;6277455;28;20045;-69
2023/08/13 13:38:21;;;;;;;1.55;0.77;;;;;;;23.89;100.00;101370.59;6277569;28;20345;-69
2023/08/13 13:41:23;;;;;;;2.20;0.65;;;;;;;23.88;100.00;101371.63;6277630;28;20059;-69
2023/08/13 13:44:24;;;;;;;0.50;0.40;;;;;;;23.84;100.00;101370.22;6277757;28;20049;-69
2023/08/13 13:47:27;;;;;;;4.55;0.93;;;;;;;23.57;100.00;101377.31;6277773;28;20045;-69
2023/08/13 13:50:28;;;;;;;1.42;0.80;;;;;;;23.42;100.00;101368.09;6277722;28;20053;-69
2023/08/13 13:53:30;;;;;;;1.27;0.68;;;;;;;23.32;100.00;101373.50;6277410;28;20143;-69
2023/08/13 13:56:31;;;;;;;5.22;1.70;;;;;;;23.43;100.00;101367.09;6276991;28;20452;-69